Yosemite National Park, CA (95389)

11:08 PM PDT on July 24, 2016 (GMT -0700)
MesoWest | | Change Station

Elev 4034 ft 37.73 °N, 119.56 °W | Updated 48 minutes ago

Overcast
Overcast
76 °F
Feels Like 77 °F
N
1
Wind Variable Wind from NNE
Gusts 0.0 mph

Today
High -- | Low -- °F
--% Chance of Precip.
Yesterday
High -- | Low -- °F
Precip. -- in
Pressure 29.94 in
Visibility 10.0 miles
Clouds Overcast 8500 ft
Heat Index 77 °F
Dew Point 39 °F
Humidity 27%
Rainfall in
Snow Depth Not available.
5:55 AM 8:13 PM
Waning Gibbous, 69% visible
METAR KO22 250555Z AUTO 00000KT 10SM OVC085 20/04 A2994 RMK AO1
Pressure 29.94 in
Visibility 10.0 miles
Clouds Overcast 8500 ft
Heat Index 77 °F
Dew Point 39 °F
Humidity 27%
Rainfall in
Snow Depth Not available.
5:55 AM 8:13 PM
Waning Gibbous, 69% visible
METAR KO22 250555Z AUTO 00000KT 10SM OVC085 20/04 A2994 RMK AO1

10-Day Weather Forecast

Almanac

Astronomy

Jul. 24, 2016 Rise Set
Actual Time
Civil Twilight
Nautical Twilight
Astronomical Twilight
Moon
Length of Visible Light
Length of Day
Tomorrow will be .
, % of the Moon is Illuminated

Today's Extremes

State Highs State Lows

Community

WunderPhotos

Upload Photos

1,927,276 photos uploaded!

WunderBlog® & News

Nearby

Air Quality

  Air Quality AQ Index Pollutant
Not available.

Snow Depth

Station Depth Elevation

Earthquake Activity

City Distance Mag. Time & Date
Minimum magnitude displayed is 2.5.

Coastal Water Temperatures

Place Temperature

Stations

Nearby Weather Stations

Station Location Temp. Windchill Dew Point Humidity Wind Precip. Elev Updated Type
                   

Watches & Warnings

There are currently no watches in effect.